SPIKE01 EGUL-EGUL

Flight info

Callsign SPIKE01
Flight time 1h 12m
Altitude 25000
Route TB7 LEE LFA17 LEE MAM
Aircraft F35/M-VGDW/C

Departure

Time 2026-05-04 18:24
Airport RAF Lakenheath (EGUL)

Arrival

Time 2026-05-04 19:37
Airport RAF Lakenheath (EGUL)
Time Latitude Longitude Altitude Speed Heading
2026-05-04 18:18 52.40131 0.56794 44 ft 0 kts 351°
2026-05-04 18:22 52.40132 0.56794 44 ft 0 kts 351°
2026-05-04 18:22 52.40156 0.56776 43 ft 5 kts 290°
2026-05-04 18:22 52.40140 0.56592 43 ft 20 kts 262°
2026-05-04 18:22 52.40119 0.56369 43 ft 19 kts 246°
2026-05-04 18:23 52.40091 0.56084 41 ft 32 kts 262°
2026-05-04 18:23 52.40048 0.55658 38 ft 41 kts 263°
2026-05-04 18:23 52.40010 0.55195 35 ft 40 kts 269°
2026-05-04 18:23 52.40115 0.54805 34 ft 36 kts 294°
2026-05-04 18:24 52.40233 0.54486 30 ft 18 kts 333°
2026-05-04 18:24 52.40437 0.54898 33 ft 138 kts 56°
2026-05-04 18:24 52.41351 0.57069 166 ft 322 kts 53°
2026-05-04 18:24 52.42014 0.61071 2062 ft 412 kts 78°
2026-05-04 18:25 52.42969 0.65947 5006 ft 467 kts 51°
2026-05-04 18:25 52.45744 0.67560 9595 ft 448 kts 340°
2026-05-04 18:25 52.48766 0.65792 14163 ft 474 kts 339°
2026-05-04 18:25 52.51877 0.63984 19071 ft 499 kts 339°
2026-05-04 18:26 52.55377 0.61922 21900 ft 567 kts 337°
2026-05-04 18:26 52.59159 0.59692 22771 ft 580 kts 338°
2026-05-04 18:26 52.62889 0.57589 23615 ft 565 kts 338°
2026-05-04 18:26 52.66622 0.55491 24332 ft 568 kts 338°
2026-05-04 18:27 52.70195 0.52809 24999 ft 562 kts 328°
2026-05-04 18:27 52.73549 0.49500 25620 ft 563 kts 325°
2026-05-04 18:27 52.76845 0.45972 25908 ft 565 kts 324°
2026-05-04 18:27 52.80134 0.42292 26003 ft 574 kts 323°
2026-05-04 18:28 52.83418 0.38534 26041 ft 573 kts 323°
2026-05-04 18:28 52.86690 0.34747 26031 ft 574 kts 323°
2026-05-04 18:28 52.89958 0.30944 26050 ft 574 kts 323°
2026-05-04 18:28 52.93224 0.27127 26052 ft 574 kts 323°
2026-05-04 18:29 52.96493 0.23299 26044 ft 574 kts 323°
2026-05-04 18:29 52.99748 0.19444 26042 ft 574 kts 322°
2026-05-04 18:29 53.02978 0.15533 26040 ft 576 kts 322°
2026-05-04 18:29 53.06194 0.11540 26049 ft 577 kts 322°
2026-05-04 18:30 53.12547 0.03530 26056 ft 576 kts 322°
2026-05-04 18:30 53.15736 -0.00517 26042 ft 576 kts 322°
2026-05-04 18:30 53.18923 -0.04600 26038 ft 580 kts 322°
2026-05-04 18:31 53.22111 -0.08722 26061 ft 580 kts 322°
2026-05-04 18:31 53.25289 -0.12850 26052 ft 579 kts 322°
2026-05-04 18:31 53.28461 -0.17031 26029 ft 580 kts 322°
2026-05-04 18:31 53.31624 -0.21262 26048 ft 581 kts 322°
2026-05-04 18:32 53.34772 -0.25503 26054 ft 580 kts 322°
2026-05-04 18:32 53.37913 -0.29751 26047 ft 580 kts 321°
2026-05-04 18:32 53.41054 -0.34012 26038 ft 581 kts 321°
2026-05-04 18:32 53.44189 -0.38272 26051 ft 581 kts 321°
2026-05-04 18:33 53.47329 -0.42546 26051 ft 580 kts 321°
2026-05-04 18:33 53.50458 -0.46811 26036 ft 581 kts 321°
2026-05-04 18:33 53.53601 -0.51099 26052 ft 581 kts 321°
2026-05-04 18:33 53.56732 -0.55377 26052 ft 580 kts 321°
2026-05-04 18:34 53.59868 -0.59669 26035 ft 581 kts 321°
2026-05-04 18:34 53.63001 -0.63962 26044 ft 581 kts 321°
2026-05-04 18:34 53.66133 -0.68259 26051 ft 580 kts 321°
2026-05-04 18:34 53.69227 -0.72509 26037 ft 581 kts 321°
2026-05-04 18:35 53.72360 -0.76818 26037 ft 581 kts 321°
2026-05-04 18:35 53.75487 -0.81123 26031 ft 579 kts 321°
2026-05-04 18:35 53.78612 -0.85425 26029 ft 579 kts 321°
2026-05-04 18:35 53.81736 -0.89727 26041 ft 579 kts 321°
2026-05-04 18:36 53.84859 -0.94031 26035 ft 579 kts 321°
2026-05-04 18:36 53.87981 -0.98341 26030 ft 580 kts 321°
2026-05-04 18:36 53.91099 -1.02661 26037 ft 579 kts 319°
2026-05-04 18:36 53.93808 -1.07713 25938 ft 581 kts 303°
2026-05-04 18:37 53.95572 -1.13861 25853 ft 582 kts 287°
2026-05-04 18:37 53.96600 -1.20515 25920 ft 583 kts 283°
2026-05-04 18:37 53.97413 -1.27277 25995 ft 584 kts 281°
2026-05-04 18:37 53.98119 -1.34059 26015 ft 583 kts 280°
2026-05-04 18:38 53.98777 -1.40854 26015 ft 583 kts 279°
2026-05-04 18:38 53.99412 -1.47658 26014 ft 582 kts 279°
2026-05-04 18:38 54.00038 -1.54460 26015 ft 582 kts 279°
2026-05-04 18:38 54.00660 -1.61267 26014 ft 583 kts 279°
2026-05-04 18:39 54.01280 -1.68076 26033 ft 583 kts 279°
2026-05-04 18:39 54.01895 -1.74894 26027 ft 584 kts 279°
2026-05-04 18:39 54.02507 -1.81726 26029 ft 583 kts 279°
2026-05-04 18:39 54.03116 -1.88538 26030 ft 583 kts 279°
2026-05-04 18:40 54.03725 -1.95351 26028 ft 583 kts 278°
2026-05-04 18:40 54.04332 -2.02188 26042 ft 584 kts 279°
2026-05-04 18:40 54.04936 -2.09024 26031 ft 583 kts 279°
2026-05-04 18:40 54.05530 -2.15759 26039 ft 581 kts 279°
2026-05-04 18:41 54.06125 -2.22572 26034 ft 582 kts 278°
2026-05-04 18:41 54.06714 -2.29395 26038 ft 582 kts 279°
2026-05-04 18:41 54.07301 -2.36241 26038 ft 582 kts 279°
2026-05-04 18:41 54.07888 -2.43059 26041 ft 581 kts 279°
2026-05-04 18:42 54.08473 -2.49886 26047 ft 582 kts 279°
2026-05-04 18:42 54.09051 -2.56727 26036 ft 583 kts 279°
2026-05-04 18:42 54.09627 -2.63555 26038 ft 582 kts 278°
2026-05-04 18:42 54.10193 -2.70292 26046 ft 581 kts 279°
2026-05-04 18:43 54.10760 -2.77128 26053 ft 582 kts 279°
2026-05-04 18:43 54.11317 -2.83959 26042 ft 582 kts 278°
2026-05-04 18:43 54.12235 -2.90075 21903 ft 501 kts 296°
2026-05-04 18:43 54.13831 -2.95519 13980 ft 530 kts 298°
2026-05-04 18:44 54.15706 -3.00998 6586 ft 499 kts 320°
2026-05-04 18:44 54.17913 -3.02321 3754 ft 535 kts 359°
2026-05-04 18:44 54.22922 -2.99873 1675 ft 561 kts 20°
2026-05-04 18:44 54.26116 -2.97269 794 ft 485 kts
2026-05-04 18:45 54.29525 -2.95514 380 ft 571 kts
2026-05-04 18:45 54.33134 -2.94362 235 ft 489 kts 12°
2026-05-04 18:45 54.36317 -2.93688 307 ft 433 kts 354°
2026-05-04 18:45 54.39110 -2.94635 364 ft 403 kts 342°
2026-05-04 18:46 54.42054 -2.96360 477 ft 497 kts 346°
2026-05-04 18:46 54.44729 -2.99437 671 ft 525 kts 276°
2026-05-04 18:46 54.47454 -3.02877 673 ft 571 kts 342°
2026-05-04 18:46 54.51279 -3.04878 811 ft 523 kts 352°
2026-05-04 18:47 54.54993 -3.06835 776 ft 582 kts 351°
2026-05-04 18:47 54.58217 -3.08835 909 ft 555 kts 306°
2026-05-04 18:47 54.60518 -3.13963 650 ft 503 kts 304°
2026-05-04 18:47 54.62867 -3.18854 454 ft 524 kts 323°
2026-05-04 18:48 54.66109 -3.22108 463 ft 547 kts 331°
2026-05-04 18:48 54.68106 -3.26503 2099 ft 528 kts 246°
2026-05-04 18:48 54.65226 -3.30665 1182 ft 599 kts 196°
2026-05-04 18:48 54.61192 -3.31726 773 ft 593 kts 187°
2026-05-04 18:49 54.57417 -3.31605 615 ft 451 kts 159°
2026-05-04 18:49 54.54532 -3.29322 472 ft 492 kts 138°
2026-05-04 18:49 54.52519 -3.24092 692 ft 518 kts 100°
2026-05-04 18:49 54.50502 -3.18905 1739 ft 577 kts 137°
2026-05-04 18:50 54.47426 -3.14648 2658 ft 595 kts 155°
2026-05-04 18:50 54.44461 -3.10693 3415 ft 520 kts 141°
2026-05-04 18:50 54.41540 -3.06418 3536 ft 586 kts 142°
2026-05-04 18:50 54.37931 -3.03170 3227 ft 596 kts 155°
2026-05-04 18:51 54.34091 -2.99904 2933 ft 636 kts 153°
2026-05-04 18:51 54.33633 -2.94695 1091 ft 600 kts 13°
2026-05-04 18:51 54.37467 -2.93527 578 ft 501 kts
2026-05-04 18:51 54.40757 -2.91513 588 ft 556 kts 24°
2026-05-04 18:52 54.44548 -2.88717 980 ft 605 kts
2026-05-04 18:52 54.48713 -2.88807 2628 ft 541 kts 341°
2026-05-04 18:52 54.52108 -2.92423 758 ft 608 kts 333°
2026-05-04 18:52 54.55991 -2.93453 639 ft 599 kts 49°
2026-05-04 18:53 54.57754 -2.87105 2521 ft 533 kts 85°
2026-05-04 18:53 54.55446 -2.82872 6913 ft 574 kts 159°
2026-05-04 18:53 54.51367 -2.81254 8126 ft 618 kts 172°
2026-05-04 18:53 54.47083 -2.80183 8616 ft 612 kts 174°
2026-05-04 18:54 54.42890 -2.80257 8680 ft 602 kts 186°
2026-05-04 18:54 54.38725 -2.80927 7853 ft 591 kts 207°
2026-05-04 18:54 54.36947 -2.86969 3861 ft 595 kts 247°
2026-05-04 18:54 54.37081 -2.93295 678 ft 599 kts 338°
2026-05-04 18:55 54.40445 -2.95513 677 ft 483 kts 332°
2026-05-04 18:55 54.44829 -2.99516 587 ft 481 kts 287°
2026-05-04 18:55 54.47173 -3.02981 486 ft 554 kts 357°
2026-05-04 18:56 54.51133 -3.04743 719 ft 610 kts 341°
2026-05-04 18:56 54.55195 -3.06842 675 ft 602 kts 354°
2026-05-04 18:56 54.57123 -3.03369 7396 ft 453 kts 99°
2026-05-04 18:56 54.56108 -2.97490 10939 ft 592 kts 108°
2026-05-04 18:57 54.54901 -2.90596 11049 ft 571 kts 105°
2026-05-04 18:57 54.53781 -2.83834 11159 ft 598 kts 107°
2026-05-04 18:57 54.52599 -2.77089 11136 ft 549 kts 107°
2026-05-04 18:57 54.51517 -2.71060 11083 ft 522 kts 107°
2026-05-04 18:58 54.50429 -2.65072 11056 ft 523 kts 108°
2026-05-04 18:58 54.49339 -2.59104 11049 ft 522 kts 108°
2026-05-04 18:58 54.48222 -2.53017 11038 ft 580 kts 108°
2026-05-04 18:58 54.46926 -2.45977 11000 ft 619 kts 108°
2026-05-04 18:59 54.45647 -2.39045 11000 ft 614 kts 108°
2026-05-04 18:59 54.44354 -2.32046 11032 ft 616 kts 108°
2026-05-04 18:59 54.43112 -2.24999 10579 ft 600 kts 102°
2026-05-04 18:59 54.42792 -2.18665 9686 ft 527 kts 86°
2026-05-04 19:00 54.43125 -2.12363 8863 ft 529 kts 82°
2026-05-04 19:00 54.43630 -2.06124 8324 ft 527 kts 81°
2026-05-04 19:00 54.44192 -1.99988 8137 ft 526 kts 80°
2026-05-04 19:00 54.44787 -1.93785 7954 ft 524 kts 80°
2026-05-04 19:01 54.45389 -1.87630 7114 ft 502 kts 80°
2026-05-04 19:01 54.45939 -1.82115 6372 ft 440 kts 80°
2026-05-04 19:01 54.46438 -1.77164 5596 ft 403 kts 80°
2026-05-04 19:01 54.46862 -1.72571 4832 ft 377 kts 86°
2026-05-04 19:02 54.46567 -1.68752 3993 ft 251 kts 115°
2026-05-04 19:02 54.45513 -1.66490 3234 ft 242 kts 140°
2026-05-04 19:02 54.44128 -1.64840 2549 ft 242 kts 155°
2026-05-04 19:02 54.42578 -1.63685 2214 ft 241 kts 160°
2026-05-04 19:03 54.41026 -1.62679 2104 ft 226 kts 161°
2026-05-04 19:03 54.39529 -1.61688 2089 ft 230 kts 159°
2026-05-04 19:03 54.38065 -1.60536 1858 ft 233 kts 155°
2026-05-04 19:03 54.36696 -1.59370 1481 ft 195 kts 156°
2026-05-04 19:04 54.35440 -1.58366 1272 ft 195 kts 159°
2026-05-04 19:04 54.34603 -1.57740 1043 ft 202 kts 158°
2026-05-04 19:04 54.33350 -1.56797 827 ft 195 kts 156°
2026-05-04 19:04 54.32117 -1.55819 502 ft 190 kts 155°
2026-05-04 19:05 54.30959 -1.54895 298 ft 172 kts 155°
2026-05-04 19:05 54.29952 -1.54110 140 ft 141 kts 155°
2026-05-04 19:05 54.28767 -1.53190 535 ft 213 kts 155°
2026-05-04 19:05 54.26301 -1.51271 3895 ft 356 kts 157°
2026-05-04 19:06 54.24649 -1.49991 7377 ft 446 kts 157°
2026-05-04 19:06 54.21579 -1.47223 11028 ft 534 kts 142°
2026-05-04 19:06 54.18553 -1.43056 15237 ft 567 kts 142°
2026-05-04 19:06 54.15513 -1.38819 19110 ft 568 kts 141°
2026-05-04 19:07 54.12386 -1.34466 20696 ft 592 kts 141°
2026-05-04 19:07 54.09218 -1.30122 21544 ft 577 kts 142°
2026-05-04 19:07 54.06028 -1.25895 22340 ft 582 kts 143°
2026-05-04 19:07 54.02815 -1.21725 23169 ft 580 kts 143°
2026-05-04 19:08 53.99594 -1.17603 23935 ft 579 kts 143°
2026-05-04 19:08 53.96367 -1.13533 24571 ft 577 kts 143°
2026-05-04 19:08 53.93173 -1.09553 24860 ft 577 kts 143°
2026-05-04 19:08 53.89930 -1.05538 24973 ft 576 kts 143°
2026-05-04 19:09 53.86692 -1.01541 25022 ft 575 kts 143°
2026-05-04 19:09 53.83437 -0.97531 25027 ft 585 kts 143°
2026-05-04 19:09 53.80164 -0.93501 25039 ft 579 kts 143°
2026-05-04 19:09 53.76904 -0.89487 25028 ft 581 kts 143°
2026-05-04 19:10 53.73638 -0.85462 25039 ft 581 kts 143°
2026-05-04 19:10 53.70383 -0.81446 25035 ft 579 kts 143°
2026-05-04 19:10 53.67157 -0.77466 25031 ft 579 kts 143°
2026-05-04 19:10 53.63874 -0.73415 25041 ft 580 kts 143°
2026-05-04 19:11 53.60618 -0.69401 25052 ft 579 kts 143°
2026-05-04 19:11 53.57367 -0.65396 25044 ft 580 kts 143°
2026-05-04 19:11 53.54113 -0.61390 25056 ft 579 kts 143°
2026-05-04 19:11 53.50857 -0.57384 25043 ft 579 kts 143°
2026-05-04 19:12 53.47608 -0.53390 25050 ft 579 kts 143°
2026-05-04 19:12 53.41151 -0.45448 25041 ft 579 kts 143°
2026-05-04 19:12 53.37922 -0.41402 25050 ft 579 kts 142°
2026-05-04 19:13 53.34706 -0.37347 25042 ft 579 kts 142°
2026-05-04 19:13 53.31492 -0.33282 25048 ft 579 kts 142°
2026-05-04 19:13 53.28277 -0.29215 25054 ft 579 kts 142°
2026-05-04 19:13 53.25068 -0.25153 25066 ft 579 kts 143°
2026-05-04 19:14 53.21879 -0.21015 25044 ft 582 kts 142°
2026-05-04 19:14 53.18723 -0.16798 25061 ft 581 kts 142°
2026-05-04 19:14 53.15572 -0.12539 24607 ft 584 kts 141°
2026-05-04 19:14 53.12544 -0.08404 23919 ft 560 kts 142°
2026-05-04 19:15 53.09530 -0.04254 23154 ft 562 kts 141°
2026-05-04 19:15 53.06522 -0.00090 22338 ft 566 kts 142°
2026-05-04 19:15 53.03487 0.04145 21538 ft 570 kts 141°
2026-05-04 19:15 53.00446 0.08402 20762 ft 572 kts 141°
2026-05-04 19:16 52.97404 0.12685 20009 ft 575 kts 141°
2026-05-04 19:16 52.94300 0.16864 19230 ft 573 kts 148°
2026-05-04 19:16 52.90722 0.19710 18311 ft 571 kts 165°
2026-05-04 19:16 52.87038 0.20782 17364 ft 526 kts 177°
2026-05-04 19:17 52.83386 0.21057 16546 ft 527 kts 180°
2026-05-04 19:17 52.79776 0.21130 15774 ft 528 kts 182°
2026-05-04 19:17 52.76107 0.20798 15022 ft 530 kts 184°
2026-05-04 19:17 52.72411 0.20714 14278 ft 532 kts 180°
2026-05-04 19:18 52.68690 0.20680 13362 ft 535 kts 181°
2026-05-04 19:18 52.64976 0.20593 11329 ft 534 kts 182°
2026-05-04 19:18 52.61360 0.20509 9508 ft 486 kts 182°
2026-05-04 19:18 52.58105 0.20443 8533 ft 464 kts 182°
2026-05-04 19:19 52.54882 0.20378 7396 ft 462 kts 182°
2026-05-04 19:19 52.51738 0.20316 4215 ft 448 kts 181°
2026-05-04 19:19 52.48781 0.20219 3863 ft 395 kts 184°
2026-05-04 19:19 52.46207 0.19948 3846 ft 346 kts 184°
2026-05-04 19:20 52.43872 0.19792 3681 ft 333 kts 182°
2026-05-04 19:20 52.41578 0.19762 3483 ft 334 kts 180°
2026-05-04 19:20 52.39274 0.19863 3298 ft 320 kts 177°
2026-05-04 19:20 52.37155 0.20279 3100 ft 294 kts 165°
2026-05-04 19:21 52.35319 0.21356 3017 ft 270 kts 157°
2026-05-04 19:21 52.33597 0.22602 3006 ft 268 kts 155°
2026-05-04 19:21 52.31882 0.23846 2668 ft 274 kts 159°
2026-05-04 19:21 52.30125 0.24963 2211 ft 268 kts 146°
2026-05-04 19:22 52.28965 0.27162 1989 ft 241 kts 96°
2026-05-04 19:22 52.29637 0.29425 1674 ft 228 kts 52°
2026-05-04 19:22 52.30551 0.31483 2088 ft 225 kts 50°
2026-05-04 19:22 52.31503 0.33510 2036 ft 224 kts 51°
2026-05-04 19:23 52.32406 0.35579 2016 ft 223 kts 53°
2026-05-04 19:23 52.33286 0.37735 2006 ft 267 kts 54°
2026-05-04 19:23 52.34531 0.40772 2013 ft 270 kts 55°
2026-05-04 19:23 52.35504 0.43133 1765 ft 223 kts 54°
2026-05-04 19:24 52.36283 0.44988 1463 ft 176 kts 53°
2026-05-04 19:24 52.37181 0.47085 1184 ft 274 kts 54°
2026-05-04 19:24 52.38229 0.49581 818 ft 243 kts 55°
2026-05-04 19:24 52.39203 0.51936 391 ft 274 kts 54°
2026-05-04 19:25 52.40490 0.54975 310 ft 437 kts 54°
2026-05-04 19:25 52.42800 0.58986 503 ft 510 kts 10°
2026-05-04 19:25 52.45042 0.56173 1489 ft 409 kts 285°
2026-05-04 19:25 52.45240 0.51896 1839 ft 367 kts 268°
2026-05-04 19:26 52.44652 0.47875 1874 ft 363 kts 251°
2026-05-04 19:26 52.43220 0.44535 2214 ft 367 kts 216°
2026-05-04 19:26 52.40946 0.42664 2194 ft 366 kts 197°
2026-05-04 19:26 52.38447 0.42643 2008 ft 365 kts 157°
2026-05-04 19:27 52.37223 0.45902 1739 ft 353 kts 88°
2026-05-04 19:27 52.38224 0.49437 1691 ft 348 kts 54°
2026-05-04 19:27 52.39636 0.52634 1553 ft 337 kts 53°
2026-05-04 19:27 52.41005 0.55823 1406 ft 339 kts 70°
2026-05-04 19:28 52.39416 0.57161 1578 ft 322 kts 207°
2026-05-04 19:28 52.38003 0.54907 1644 ft 256 kts 231°
2026-05-04 19:28 52.37803 0.52558 1420 ft 237 kts 319°
2026-05-04 19:28 52.39351 0.52416 503 ft 191 kts 53°
2026-05-04 19:29 52.40169 0.54351 114 ft 191 kts 54°
2026-05-04 19:29 52.41099 0.56558 130 ft 352 kts 54°
2026-05-04 19:29 52.40716 0.59395 1241 ft 352 kts 193°
2026-05-04 19:29 52.39237 0.56603 1290 ft 340 kts 234°
2026-05-04 19:30 52.37953 0.53655 1172 ft 288 kts 250°
2026-05-04 19:30 52.38986 0.51973 590 ft 269 kts 18°
2026-05-04 19:30 52.39989 0.53835 88 ft 194 kts 54°
2026-05-04 19:30 52.40967 0.56167 84 ft 350 kts 55°
2026-05-04 19:31 52.40506 0.58623 495 ft 443 kts 213°
2026-05-04 19:31 52.38008 0.54337 945 ft 524 kts 239°
2026-05-04 19:31 52.39298 0.52789 548 ft 329 kts 32°
2026-05-04 19:31 52.40667 0.55507 115 ft 274 kts 55°
2026-05-04 19:32 52.41570 0.58943 1434 ft 376 kts 152°
2026-05-04 19:32 52.38943 0.56913 1185 ft 476 kts 242°
2026-05-04 19:32 52.37820 0.53387 1285 ft 234 kts 255°
2026-05-04 19:32 52.37765 0.52679 1163 ft 199 kts 281°
2026-05-04 19:33 52.38262 0.51632 621 ft 195 kts 355°
2026-05-04 19:33 52.39641 0.53016 192 ft 239 kts 53°
2026-05-04 19:33 52.40609 0.55336 69 ft 343 kts 55°
2026-05-04 19:34 52.40595 0.58684 909 ft 443 kts 192°
2026-05-04 19:34 52.38764 0.55434 1205 ft 403 kts 234°
2026-05-04 19:34 52.38305 0.52594 998 ft 213 kts 322°
2026-05-04 19:34 52.39731 0.53244 143 ft 249 kts 54°
2026-05-04 19:35 52.40876 0.55985 58 ft 401 kts 55°
2026-05-04 19:35 52.41038 0.59534 1504 ft 415 kts 211°
2026-05-04 19:35 52.39318 0.56462 1592 ft 348 kts 230°
2026-05-04 19:35 52.38000 0.53643 1470 ft 290 kts 255°
2026-05-04 19:36 52.39059 0.52074 645 ft 227 kts 34°
2026-05-04 19:36 52.39964 0.53757 92 ft 157 kts 55°
2026-05-04 19:36 52.40464 0.54957 35 ft 104 kts 54°
2026-05-04 19:36 52.40815 0.55787 38 ft 91 kts 56°
2026-05-04 19:37 52.41169 0.56628 39 ft 86 kts 55°
2026-05-04 19:37 52.41475 0.57376 38 ft 56 kts 56°
2026-05-04 19:37 52.41595 0.57660 38 ft 19 kts 59°
2026-05-04 19:37 52.41564 0.57813 37 ft 17 kts 155°
2026-05-04 19:38 52.41363 0.57755 38 ft 41 kts 196°
2026-05-04 19:38 52.41095 0.57641 49 ft 37 kts 195°
2026-05-04 19:38 52.40844 0.57541 51 ft 38 kts 192°
2026-05-04 19:38 52.40582 0.57420 45 ft 39 kts 195°
2026-05-04 19:39 52.40325 0.57286 50 ft 38 kts 210°
2026-05-04 19:39 52.40187 0.57084 46 ft 12 kts 251°
2026-05-04 19:39 52.40140 0.57045 44 ft 6 kts 204°
2026-05-04 19:39 52.40120 0.56914 44 ft 2 kts 261°
2026-05-04 19:40 52.40130 0.56871 44 ft 6 kts 343°
2026-05-04 19:40 52.40137 0.56869 44 ft 0 kts 351°